CheckWX is a tool to help pilots better visualize weather data.  It is not intended as a substitute for an official pre-flight weather briefing.

05:20:41 UTC

EGNH METAR
Blackpool International Airport
Blackpool, United Kingdom
Current

9 hours ago

EGNH 272050Z 30010KT 9999 FEW028 06/02 Q1010
Observed
Feb-27 @ 20:50 UTC
Wind
  • 300° at 10 KTS
Visibility
10,000+ meters
Flight Rules
VFR
Cloud Levels
  • Few at 2,800' AGL
Temperature
C / 43°F
Dewpoint
C / 36°F
Humidity
76%
Altimeter
29.82" Hg
Pressure
1009.92 hPa
Previous

9 hours ago

EGNH 272020Z 27009KT 9999 FEW028 05/02 Q1010
Observed
Feb-27 @ 20:20 UTC
Wind
  • 270° at 9 KTS
Visibility
10,000+ meters
Flight Rules
VFR
Cloud Levels
  • Few at 2,800' AGL
Temperature
C / 41°F
Dewpoint
C / 36°F
Humidity
81%
Altimeter
29.82" Hg
Pressure
1009.92 hPa
Previous

10 hours ago

EGNH 271950Z 28012KT 9999 FEW028 06/02 Q1010
Observed
Feb-27 @ 19:50 UTC
Wind
  • 280° at 12 KTS
Visibility
10,000+ meters
Flight Rules
VFR
Cloud Levels
  • Few at 2,800' AGL
Temperature
C / 43°F
Dewpoint
C / 36°F
Humidity
76%
Altimeter
29.82" Hg
Pressure
1009.92 hPa